createdAt,value
2017-05-25T00:01:14.313Z,18.10
2017-05-25T00:03:43.688Z,18.16
2017-05-25T00:06:12.655Z,17.62
2017-05-25T00:08:41.613Z,19.12
2017-05-25T00:11:11.099Z,15.94
2017-05-25T00:13:40.059Z,17.72
2017-05-25T00:16:09.028Z,17.16
2017-05-25T00:18:38.362Z,17.52
2017-05-25T00:21:07.339Z,18.34
2017-05-25T00:23:36.293Z,17.00
2017-05-25T00:26:05.753Z,20.10
2017-05-25T00:28:34.728Z,19.20
2017-05-25T00:31:03.698Z,18.42
2017-05-25T00:33:32.992Z,18.32
2017-05-25T00:36:01.933Z,20.64
2017-05-25T00:38:30.857Z,21.50
2017-05-25T00:41:00.166Z,18.12
2017-05-25T00:43:29.215Z,20.60
2017-05-25T00:45:58.193Z,20.34
2017-05-25T00:48:27.592Z,20.88
2017-05-25T00:50:56.556Z,17.38
2017-05-25T00:53:25.500Z,21.70
2017-05-25T00:55:54.845Z,19.02
2017-05-25T00:58:23.784Z,22.12
2017-05-25T01:00:52.751Z,20.40
2017-05-25T01:03:22.160Z,21.62
2017-05-25T01:05:51.132Z,21.04
2017-05-25T01:08:20.084Z,22.12
2017-05-25T01:10:49.434Z,23.62
2017-05-25T01:13:18.429Z,21.08
2017-05-25T01:15:47.390Z,24.36
2017-05-25T01:18:16.823Z,23.58
2017-05-25T01:20:45.770Z,23.54
2017-05-25T01:23:14.738Z,20.50
2017-05-25T01:25:44.114Z,22.70
2017-05-25T01:28:13.067Z,24.80
2017-05-25T01:30:42.047Z,25.10
2017-05-25T01:33:11.395Z,26.68
2017-05-25T01:35:40.349Z,26.18
2017-05-25T01:38:09.324Z,27.72
2017-05-25T01:40:38.679Z,26.68
2017-05-25T01:43:07.647Z,26.56
2017-05-25T01:45:36.602Z,27.02
2017-05-25T01:48:05.913Z,27.42
2017-05-25T01:50:34.865Z,26.30
2017-05-25T01:53:03.827Z,26.66
2017-05-25T01:55:33.242Z,27.62
2017-05-25T01:58:02.220Z,26.62
2017-05-25T02:00:31.230Z,24.34
2017-05-25T02:03:00.626Z,24.62
2017-05-25T02:05:29.598Z,28.26
2017-05-25T02:07:58.623Z,30.00
2017-05-25T02:10:28.020Z,26.90
2017-05-25T02:12:56.966Z,28.74
2017-05-25T02:15:25.929Z,30.94
2017-05-25T02:17:55.288Z,29.88
2017-05-25T02:20:24.219Z,32.92
2017-05-25T02:22:53.234Z,29.84
2017-05-25T02:25:22.562Z,30.26
2017-05-25T02:27:51.510Z,28.98
2017-05-25T02:30:20.491Z,29.04
2017-05-25T02:32:49.877Z,27.98
2017-05-25T02:35:18.844Z,28.34
2017-05-25T02:37:47.813Z,25.76
2017-05-25T02:40:17.247Z,27.76
2017-05-25T02:42:46.225Z,28.18
2017-05-25T02:45:15.242Z,27.90
2017-05-25T02:47:44.637Z,27.42
2017-05-25T02:50:13.622Z,25.20
2017-05-25T02:52:42.580Z,25.56
2017-05-25T02:55:11.907Z,27.04
2017-05-25T02:57:40.952Z,27.46
2017-05-25T03:00:09.939Z,27.08
2017-05-25T03:02:39.304Z,26.12
2017-05-25T03:05:08.308Z,27.68
2017-05-25T03:07:37.271Z,24.80
2017-05-25T03:10:06.780Z,26.22
2017-05-25T03:12:35.735Z,24.12
2017-05-25T03:15:04.718Z,23.92
2017-05-25T03:17:34.084Z,25.18
2017-05-25T03:20:03.043Z,23.76
2017-05-25T03:22:32.040Z,27.38
2017-05-25T03:25:01.447Z,21.52
2017-05-25T03:27:30.416Z,22.30
2017-05-25T03:29:59.370Z,22.38
2017-05-25T03:32:28.735Z,19.32
2017-05-25T03:34:57.719Z,21.62
2017-05-25T03:37:26.679Z,20.28
2017-05-25T03:39:56.030Z,19.58
2017-05-25T03:42:25.035Z,20.20
2017-05-25T03:44:54.037Z,19.66
2017-05-25T03:47:23.424Z,19.74
2017-05-25T03:49:52.403Z,18.58
2017-05-25T03:52:21.449Z,19.36
2017-05-25T03:54:50.814Z,18.60
2017-05-25T03:57:19.765Z,18.48
2017-05-25T03:59:48.713Z,17.04
2017-05-25T04:02:18.046Z,16.90
2017-05-25T04:04:47.024Z,18.98
2017-05-25T04:07:15.977Z,19.02
2017-05-25T04:09:45.266Z,18.10
2017-05-25T04:12:14.278Z,17.12
2017-05-25T04:14:43.319Z,18.66
2017-05-25T04:17:12.818Z,17.26
2017-05-25T04:19:42.117Z,19.08
2017-05-25T04:22:11.091Z,17.10
2017-05-25T04:24:40.442Z,16.74
2017-05-25T04:27:09.448Z,16.88
2017-05-25T04:29:38.388Z,15.60
2017-05-25T04:32:07.722Z,14.70
2017-05-25T04:34:36.684Z,13.32
2017-05-25T04:37:05.643Z,13.22
2017-05-25T04:39:35.141Z,11.72
2017-05-25T04:42:04.118Z,10.88
2017-05-25T04:44:33.141Z,11.96
2017-05-25T04:47:02.487Z,10.56
2017-05-25T04:49:31.452Z,10.06
2017-05-25T04:52:00.418Z,9.62
2017-05-25T04:54:29.786Z,10.44
2017-05-25T04:56:58.726Z,9.28
2017-05-25T04:59:27.667Z,9.02
2017-05-25T05:01:56.966Z,7.72
2017-05-25T05:04:25.984Z,8.64
2017-05-25T05:06:55.057Z,9.70
2017-05-25T05:09:24.396Z,8.30
2017-05-25T05:11:53.426Z,8.96
2017-05-25T05:14:22.443Z,8.66
2017-05-25T05:16:51.839Z,8.60
2017-05-25T05:19:20.806Z,8.26
2017-05-25T05:21:49.756Z,6.84
2017-05-25T05:24:19.078Z,7.68
2017-05-25T05:26:48.027Z,6.54
2017-05-25T05:29:17.039Z,6.98
2017-05-25T05:31:46.458Z,7.04
2017-05-25T05:34:15.551Z,7.02
2017-05-25T05:36:44.535Z,6.64
2017-05-25T05:39:13.858Z,7.02
2017-05-25T05:41:42.854Z,5.84
2017-05-25T05:44:11.793Z,6.38
2017-05-25T05:46:41.169Z,6.90
2017-05-25T05:49:10.127Z,5.64
2017-05-25T05:51:39.104Z,6.16
2017-05-25T05:54:08.456Z,6.94
2017-05-25T05:56:37.418Z,5.10
2017-05-25T06:15:21.766Z,3.36
2017-05-25T06:17:50.709Z,3.66
2017-05-25T06:20:20.082Z,3.24
2017-05-25T06:22:49.388Z,3.86
2017-05-25T06:25:18.423Z,3.72
2017-05-25T06:27:47.414Z,3.32
2017-05-25T06:30:16.788Z,4.12
2017-05-25T06:32:45.739Z,2.76
2017-05-25T06:35:14.729Z,3.34
2017-05-25T06:37:44.066Z,2.62
2017-05-25T06:40:13.030Z,2.70
2017-05-25T06:42:41.993Z,2.98
2017-05-25T06:45:11.291Z,1.70
2017-05-25T06:47:40.280Z,2.72
2017-05-25T06:50:09.243Z,2.14
2017-05-25T06:52:38.555Z,2.30
2017-05-25T06:55:07.527Z,1.98
2017-05-25T06:57:36.476Z,1.62
2017-05-25T07:00:05.830Z,2.02
2017-05-25T07:02:34.870Z,2.16
2017-05-25T07:05:03.820Z,2.40
2017-05-25T07:07:33.139Z,2.26
2017-05-25T07:10:02.111Z,1.90
2017-05-25T07:12:31.149Z,2.08
2017-05-25T07:15:00.582Z,2.08
2017-05-25T07:17:29.612Z,2.76
2017-05-25T07:19:58.575Z,2.72
2017-05-25T07:22:28.027Z,3.24
2017-05-25T07:24:57.045Z,2.34
2017-05-25T07:27:26.119Z,1.98
2017-05-25T07:29:55.470Z,2.76
2017-05-25T07:32:24.476Z,2.74
2017-05-25T07:34:53.438Z,2.02
2017-05-25T07:37:22.837Z,2.08
2017-05-25T07:39:51.802Z,2.32
2017-05-25T07:42:20.759Z,2.10
2017-05-25T07:44:50.140Z,2.00
2017-05-25T07:47:19.104Z,2.24
2017-05-25T07:49:48.084Z,1.72
2017-05-25T07:52:17.517Z,2.34
2017-05-25T07:54:46.483Z,2.00
2017-05-25T07:57:15.440Z,2.60
2017-05-25T07:59:44.793Z,1.86
2017-05-25T08:02:13.755Z,2.18
2017-05-25T08:04:42.868Z,1.94
2017-05-25T08:07:12.218Z,3.68
2017-05-25T08:09:41.211Z,1.80
2017-05-25T08:12:10.183Z,2.24
2017-05-25T08:14:39.565Z,1.70
2017-05-25T08:17:08.611Z,2.16
2017-05-25T08:19:37.555Z,2.24
2017-05-25T08:22:06.122Z,1.64
2017-05-25T08:24:35.110Z,2.18
2017-05-25T08:27:04.109Z,2.82
2017-05-25T08:29:33.507Z,2.72
2017-05-25T08:32:02.470Z,3.36
2017-05-25T08:34:31.612Z,2.46
2017-05-25T08:37:00.978Z,2.68
2017-05-25T08:39:29.959Z,2.10
2017-05-25T08:41:58.962Z,2.02
2017-05-25T08:44:28.396Z,2.58
2017-05-25T08:46:57.400Z,2.18
2017-05-25T08:49:27.270Z,2.26
2017-05-25T08:51:56.758Z,1.84
2017-05-25T08:54:25.735Z,2.10
2017-05-25T08:56:54.678Z,2.18
2017-05-25T08:59:24.045Z,2.32
2017-05-25T09:01:53.041Z,2.12
2017-05-25T09:04:22.016Z,2.00
2017-05-25T09:06:51.431Z,2.14
2017-05-25T09:09:20.536Z,1.80
2017-05-25T09:11:49.517Z,1.50
2017-05-25T09:14:18.863Z,1.88
2017-05-25T09:16:47.867Z,1.98
2017-05-25T09:19:16.812Z,2.20
2017-05-25T09:21:46.250Z,2.56
2017-05-25T09:24:15.224Z,3.44
2017-05-25T09:26:44.215Z,2.70
2017-05-25T09:29:13.619Z,2.32
2017-05-25T09:31:42.609Z,2.48
2017-05-25T09:34:11.576Z,2.54
2017-05-25T09:36:40.906Z,2.18
2017-05-25T09:39:09.871Z,2.30
2017-05-25T09:41:38.848Z,3.18
2017-05-25T09:44:08.141Z,3.16
2017-05-25T09:46:37.142Z,2.48
2017-05-25T09:49:06.113Z,2.98
2017-05-25T09:51:35.490Z,3.14
2017-05-25T09:54:04.479Z,2.46
2017-05-25T09:56:33.471Z,3.08
2017-05-25T09:59:02.867Z,2.68
2017-05-25T10:01:31.851Z,3.04
2017-05-25T10:04:00.825Z,2.92
2017-05-25T10:06:30.323Z,3.28
2017-05-25T10:08:59.324Z,3.12
2017-05-25T10:11:28.332Z,3.64
2017-05-25T10:13:57.737Z,2.70
2017-05-25T10:16:26.718Z,2.46
2017-05-25T10:18:55.684Z,2.78
2017-05-25T10:21:25.023Z,3.04
2017-05-25T10:23:54.179Z,2.42
2017-05-25T10:26:23.171Z,3.18
2017-05-25T10:28:52.630Z,2.56
2017-05-25T10:31:21.595Z,2.60
2017-05-25T10:33:50.584Z,3.10
2017-05-25T10:36:20.110Z,3.00
2017-05-25T10:38:49.047Z,2.62
2017-05-25T10:41:17.986Z,2.22
2017-05-25T10:43:47.396Z,2.74
2017-05-25T10:46:16.351Z,2.28
2017-05-25T10:48:45.313Z,2.58
2017-05-25T10:51:14.667Z,2.94
2017-05-25T10:53:43.656Z,3.20
2017-05-25T10:56:12.634Z,3.68
2017-05-25T10:58:41.999Z,3.20
2017-05-25T11:01:10.951Z,2.78
2017-05-25T11:03:39.951Z,2.50
2017-05-25T11:06:09.440Z,2.94
2017-05-25T11:08:38.419Z,3.34
2017-05-25T11:11:07.376Z,3.44
2017-05-25T11:13:36.852Z,3.66
2017-05-25T11:16:05.129Z,3.06
2017-05-25T11:18:34.136Z,3.72
2017-05-25T11:21:03.601Z,3.44
2017-05-25T11:23:32.591Z,3.10
2017-05-25T11:26:01.548Z,3.96
2017-05-25T11:28:30.978Z,3.52
2017-05-25T11:30:59.953Z,3.60
2017-05-25T11:33:29.435Z,3.36
2017-05-25T11:35:58.895Z,3.06
2017-05-25T11:38:27.937Z,3.46
2017-05-25T11:40:57.119Z,3.50
2017-05-25T11:43:26.412Z,4.40
2017-05-25T11:45:55.383Z,3.80
2017-05-25T11:48:24.352Z,3.26
2017-05-25T11:50:53.704Z,3.52
2017-05-25T11:53:22.677Z,3.62
2017-05-25T11:55:51.660Z,3.68
2017-05-25T11:58:21.010Z,3.80
2017-05-25T12:00:50.004Z,3.08
2017-05-25T12:03:19.021Z,3.26
2017-05-25T12:05:48.417Z,3.52
2017-05-25T12:08:17.380Z,2.32
2017-05-25T12:10:46.322Z,2.84
2017-05-25T12:13:15.657Z,3.22
2017-05-25T12:15:44.604Z,2.96
2017-05-25T12:18:13.584Z,3.32
2017-05-25T12:20:43.099Z,3.32
2017-05-25T12:23:12.051Z,3.52
2017-05-25T12:25:40.999Z,3.04
2017-05-25T12:28:10.330Z,2.70
2017-05-25T12:30:39.274Z,3.32
2017-05-25T12:33:08.250Z,3.24
2017-05-25T12:35:37.570Z,3.52
2017-05-25T12:38:06.563Z,3.82
2017-05-25T12:40:35.532Z,3.94
2017-05-25T12:43:04.929Z,3.48
2017-05-25T12:45:33.859Z,3.82
2017-05-25T12:48:02.820Z,4.12
2017-05-25T12:50:32.207Z,4.52
2017-05-25T12:53:01.199Z,4.04
2017-05-25T12:55:30.166Z,4.56
2017-05-25T12:57:59.469Z,3.70
2017-05-25T13:00:28.474Z,3.60
2017-05-25T13:02:57.483Z,3.86
2017-05-25T13:05:26.901Z,3.46
2017-05-25T13:07:55.873Z,4.80
2017-05-25T13:10:24.826Z,4.20
2017-05-25T13:12:54.170Z,3.96
2017-05-25T13:15:23.140Z,4.62
2017-05-25T13:17:52.131Z,3.56
2017-05-25T13:20:21.637Z,3.46
2017-05-25T13:22:50.586Z,6.26
2017-05-25T13:25:19.574Z,4.00
2017-05-25T13:27:49.182Z,3.90
2017-05-25T13:30:18.167Z,3.48
2017-05-25T13:32:47.186Z,3.70
2017-05-25T13:35:15.804Z,3.56
2017-05-25T13:37:44.876Z,3.80
2017-05-25T13:40:13.960Z,3.80
2017-05-25T13:42:43.346Z,3.18
2017-05-25T13:45:12.301Z,2.56
2017-05-25T13:47:41.277Z,3.64
2017-05-25T13:50:10.650Z,3.48
2017-05-25T13:52:38.832Z,3.10
2017-05-25T13:55:07.797Z,2.76
2017-05-25T13:57:37.252Z,3.26
2017-05-25T14:00:06.199Z,3.44
2017-05-25T14:02:35.158Z,3.42
2017-05-25T14:05:04.571Z,3.20
2017-05-25T14:07:33.623Z,3.28
2017-05-25T14:10:02.617Z,3.16
2017-05-25T14:12:31.911Z,2.94
2017-05-25T14:15:00.948Z,2.94
2017-05-25T14:17:29.916Z,3.00
2017-05-25T14:19:59.317Z,2.94
2017-05-25T14:22:28.287Z,3.16
2017-05-25T14:24:57.355Z,3.30
2017-05-25T14:27:26.687Z,3.06
2017-05-25T14:29:55.658Z,2.74
2017-05-25T14:32:24.645Z,3.92
2017-05-25T14:34:53.939Z,2.84
2017-05-25T14:37:22.912Z,2.40
2017-05-25T14:39:51.863Z,2.64
2017-05-25T14:42:21.261Z,2.60
2017-05-25T14:44:50.231Z,2.90
2017-05-25T14:47:19.225Z,2.66
2017-05-25T14:49:48.530Z,3.08
2017-05-25T14:52:17.474Z,2.52
2017-05-25T14:54:46.438Z,2.86
2017-05-25T14:57:15.828Z,2.46
2017-05-25T14:59:44.819Z,3.10
2017-05-25T15:02:13.762Z,3.28
2017-05-25T15:04:43.138Z,2.98
2017-05-25T15:07:12.106Z,3.56
2017-05-25T15:09:41.059Z,3.74
2017-05-25T15:12:10.513Z,2.66
2017-05-25T15:14:39.598Z,3.10
2017-05-25T15:17:08.612Z,2.92
2017-05-25T15:19:37.988Z,2.36
2017-05-25T15:22:06.939Z,3.60
2017-05-25T15:24:35.939Z,3.84
2017-05-25T15:27:05.278Z,2.46
2017-05-25T15:29:34.223Z,2.90
2017-05-25T15:32:03.242Z,2.92
2017-05-25T15:34:32.568Z,3.52
2017-05-25T15:37:01.648Z,2.96
2017-05-25T15:39:30.664Z,4.82
2017-05-25T15:42:00.042Z,2.98
2017-05-25T15:44:28.995Z,3.38
2017-05-25T15:46:57.971Z,3.90
2017-05-25T15:49:28.115Z,1.98
2017-05-25T15:51:57.194Z,2.48
2017-05-25T15:54:26.144Z,1.92
2017-05-25T15:56:55.510Z,2.64
2017-05-25T15:59:24.475Z,2.34
2017-05-25T16:01:53.440Z,2.94
2017-05-25T16:04:22.731Z,2.56
2017-05-25T16:06:51.727Z,2.80
2017-05-25T16:09:20.700Z,2.88
2017-05-25T16:11:50.015Z,2.54
2017-05-25T16:14:18.995Z,2.20
2017-05-25T16:16:47.971Z,3.02
2017-05-25T16:19:17.502Z,2.94
2017-05-25T16:21:46.486Z,2.38
2017-05-25T16:24:15.470Z,2.72
2017-05-25T16:26:44.857Z,2.54
2017-05-25T16:29:13.821Z,2.72
2017-05-25T16:31:42.833Z,2.18
2017-05-25T16:34:12.235Z,2.28
2017-05-25T16:36:41.216Z,2.24
2017-05-25T16:39:10.182Z,1.98
2017-05-25T16:41:39.665Z,2.28
2017-05-25T16:44:08.639Z,2.88
2017-05-25T16:46:37.605Z,1.90
2017-05-25T16:49:07.024Z,2.30
2017-05-25T16:51:35.975Z,1.98
2017-05-25T16:54:04.999Z,2.10
2017-05-25T16:56:34.324Z,2.40
2017-05-25T16:59:03.381Z,2.10
2017-05-25T17:01:32.422Z,2.30
2017-05-25T17:04:02.022Z,2.02
2017-05-25T17:06:30.972Z,1.90
2017-05-25T17:08:59.965Z,2.02
2017-05-25T17:11:29.384Z,1.90
2017-05-25T17:13:58.439Z,2.00
2017-05-25T17:16:27.402Z,2.18
2017-05-25T17:18:56.742Z,2.70
2017-05-25T17:21:25.718Z,2.20
2017-05-25T17:23:54.685Z,1.92
2017-05-25T17:26:24.138Z,2.00
2017-05-25T17:28:53.164Z,2.20
2017-05-25T17:31:22.114Z,2.00
2017-05-25T17:33:51.464Z,2.10
2017-05-25T17:36:20.459Z,1.92
2017-05-25T17:38:49.398Z,2.10
2017-05-25T17:41:18.699Z,1.54
2017-05-25T17:43:47.689Z,1.86
2017-05-25T17:46:16.669Z,2.04
2017-05-25T17:48:46.191Z,1.48
2017-05-25T17:51:15.164Z,1.76
2017-05-25T17:53:44.140Z,1.70
2017-05-25T17:56:13.534Z,2.00
2017-05-25T17:58:42.511Z,2.42
2017-05-25T18:01:11.586Z,2.56
2017-05-25T18:03:41.012Z,2.70
2017-05-25T18:06:09.976Z,2.84
2017-05-25T18:08:38.946Z,3.08
2017-05-25T18:11:08.248Z,2.70
2017-05-25T18:13:37.220Z,2.60
2017-05-25T18:16:06.215Z,3.10
2017-05-25T18:18:35.627Z,2.60
2017-05-25T18:21:04.644Z,2.70
2017-05-25T18:26:09.127Z,3.02
2017-05-25T18:28:38.096Z,3.04
2017-05-25T18:31:07.147Z,3.40
2017-05-25T18:33:36.453Z,2.70
2017-05-25T18:36:05.518Z,3.02
2017-05-25T18:38:34.477Z,3.12
2017-05-25T18:41:03.826Z,3.32
2017-05-25T18:43:32.804Z,4.22
2017-05-25T18:46:01.775Z,3.14
2017-05-25T18:48:31.070Z,2.90
2017-05-25T18:51:00.007Z,3.32
2017-05-25T18:53:28.966Z,3.28
2017-05-25T18:55:58.436Z,3.16
2017-05-25T18:58:27.407Z,3.30
2017-05-25T19:00:56.364Z,3.78
2017-05-25T19:03:25.691Z,3.36
2017-05-25T19:05:54.662Z,5.50
2017-05-25T19:08:23.641Z,4.24
2017-05-25T19:10:52.955Z,3.58
2017-05-25T19:13:21.964Z,4.00
2017-05-25T19:15:50.921Z,4.36
2017-05-25T19:18:20.253Z,4.36
2017-05-25T19:20:49.208Z,4.24
2017-05-25T19:23:18.173Z,3.78
2017-05-25T19:25:47.424Z,4.54
2017-05-25T19:28:16.386Z,5.92
2017-05-25T19:30:45.379Z,5.36
2017-05-25T19:33:14.623Z,3.92
2017-05-25T19:35:43.616Z,5.62
2017-05-25T19:38:12.576Z,5.70
2017-05-25T19:40:41.790Z,5.76
2017-05-25T19:43:10.765Z,5.68
2017-05-25T19:45:39.767Z,6.28
2017-05-25T19:48:08.991Z,6.58
2017-05-25T19:50:37.981Z,6.84
2017-05-25T19:53:06.952Z,6.56
2017-05-25T19:55:36.158Z,7.12
2017-05-25T19:58:05.183Z,6.96
2017-05-25T20:00:34.174Z,7.72
2017-05-25T20:03:03.585Z,9.00
2017-05-25T20:05:32.632Z,10.08
2017-05-25T20:08:01.638Z,8.76
2017-05-25T20:10:31.052Z,9.84
2017-05-25T20:13:00.167Z,9.14
2017-05-25T20:15:29.137Z,9.50
2017-05-25T20:17:58.476Z,9.78
2017-05-25T20:20:27.466Z,11.00
2017-05-25T20:22:56.468Z,10.12
2017-05-25T20:25:26.033Z,10.98
2017-05-25T20:27:55.036Z,11.82
2017-05-25T20:30:24.003Z,11.84
2017-05-25T20:32:53.400Z,12.34
2017-05-25T20:35:22.383Z,11.16
2017-05-25T20:37:51.361Z,13.28
2017-05-25T20:40:20.807Z,14.70
2017-05-25T20:42:49.799Z,12.92
2017-05-25T20:45:18.770Z,11.78
2017-05-25T20:47:48.190Z,12.16
2017-05-25T20:50:17.150Z,13.86
2017-05-25T20:52:46.096Z,13.58
2017-05-25T20:55:15.551Z,13.86
2017-05-25T20:57:43.776Z,14.64
2017-05-25T21:00:12.784Z,15.18
2017-05-25T21:02:42.324Z,16.20
2017-05-25T21:05:10.521Z,17.38
2017-05-25T21:07:39.503Z,13.56
2017-05-25T21:10:08.912Z,14.74
2017-05-25T21:12:37.884Z,15.68
2017-05-25T21:15:06.856Z,16.66
2017-05-25T21:17:36.171Z,15.40
2017-05-25T21:20:05.400Z,14.70
2017-05-25T21:22:34.371Z,13.34
2017-05-25T21:25:03.793Z,15.54
2017-05-25T21:27:32.794Z,14.70
2017-05-25T21:30:01.787Z,13.84
2017-05-25T21:32:31.226Z,13.32
2017-05-25T21:35:00.238Z,14.44
2017-05-25T21:37:29.192Z,14.70
2017-05-25T21:39:58.575Z,13.02
2017-05-25T21:42:27.561Z,11.86
2017-05-25T21:44:56.508Z,14.12
2017-05-25T21:47:25.975Z,13.44
2017-05-25T21:49:54.928Z,13.10
2017-05-25T21:52:23.900Z,15.54
2017-05-25T21:54:53.318Z,14.04
2017-05-25T21:57:22.292Z,13.28
2017-05-25T21:59:51.253Z,13.74
2017-05-25T22:02:20.607Z,12.92
2017-05-25T22:04:49.568Z,11.92
2017-05-25T22:07:18.524Z,11.96
2017-05-25T22:09:47.875Z,12.26
2017-05-25T22:12:16.857Z,13.04
2017-05-25T22:14:45.843Z,13.76
2017-05-25T22:17:15.277Z,14.26
2017-05-25T22:19:44.242Z,14.16
2017-05-25T22:22:13.199Z,14.66
2017-05-25T22:24:42.492Z,13.46
2017-05-25T22:27:11.478Z,14.28
2017-05-25T22:29:40.493Z,15.40
2017-05-25T22:32:09.823Z,14.30
2017-05-25T22:34:38.814Z,14.46
2017-05-25T22:37:07.771Z,16.38
2017-05-25T22:39:37.139Z,15.24
2017-05-25T22:42:06.108Z,16.48
2017-05-25T22:44:35.191Z,16.18
2017-05-25T22:47:04.618Z,15.30
2017-05-25T22:49:33.614Z,16.38
2017-05-25T22:52:02.655Z,15.86
2017-05-25T22:54:31.971Z,16.02
2017-05-25T22:57:00.920Z,15.40
2017-05-25T22:59:29.908Z,16.10
2017-05-25T23:01:59.236Z,15.58
2017-05-25T23:04:28.250Z,17.96
2017-05-25T23:06:57.206Z,16.40
2017-05-25T23:09:26.547Z,17.40
2017-05-25T23:11:55.533Z,16.60
2017-05-25T23:14:24.520Z,17.58
2017-05-25T23:16:53.955Z,16.16
2017-05-25T23:19:22.959Z,15.90
2017-05-25T23:21:52.148Z,16.10
2017-05-25T23:24:21.615Z,15.64
2017-05-25T23:26:50.560Z,15.72
2017-05-25T23:29:19.552Z,15.80
2017-05-25T23:31:48.884Z,17.42
2017-05-25T23:34:17.827Z,16.34
2017-05-25T23:36:46.791Z,16.92
2017-05-25T23:39:16.212Z,17.10
2017-05-25T23:41:45.179Z,15.56
2017-05-25T23:44:14.145Z,17.82
2017-05-25T23:46:43.487Z,18.88
2017-05-25T23:49:12.442Z,16.98
2017-05-25T23:51:41.459Z,17.46
2017-05-25T23:54:10.874Z,17.32
2017-05-25T23:56:39.878Z,17.38
2017-05-25T23:59:08.837Z,18.94
